createdAt,value
2023-04-15T00:01:19.645Z,6.40
2023-04-15T00:03:47.821Z,6.35
2023-04-15T00:06:15.281Z,5.78
2023-04-15T00:08:42.439Z,6.22
2023-04-15T00:11:09.668Z,5.35
2023-04-15T00:13:36.612Z,5.45
2023-04-15T00:16:06.464Z,5.60
2023-04-15T00:18:33.393Z,5.85
2023-04-15T00:21:00.478Z,5.60
2023-04-15T00:23:28.156Z,5.28
2023-04-15T00:25:55.679Z,5.68
2023-04-15T00:28:22.646Z,5.10
2023-04-15T00:30:50.457Z,5.07
2023-04-15T00:33:18.806Z,4.85
2023-04-15T00:35:46.026Z,5.13
2023-04-15T00:38:13.243Z,4.30
2023-04-15T00:40:41.418Z,4.40
2023-04-15T00:43:08.671Z,3.95
2023-04-15T00:45:35.903Z,4.40
2023-04-15T00:48:03.589Z,4.07
2023-04-15T00:50:32.932Z,3.70
2023-04-15T00:53:00.017Z,4.13
2023-04-15T00:55:27.320Z,3.33
2023-04-15T00:57:55.016Z,3.92
2023-04-15T01:00:22.771Z,3.20
2023-04-15T01:02:50.976Z,3.65
2023-04-15T01:05:19.464Z,3.60
2023-04-15T01:07:48.942Z,3.53
2023-04-15T01:10:16.218Z,3.70
2023-04-15T01:12:43.414Z,4.00
2023-04-15T01:15:11.216Z,3.83
2023-04-15T01:17:39.600Z,3.45
2023-04-15T01:20:10.577Z,3.63
2023-04-15T01:22:38.345Z,4.30
2023-04-15T01:25:13.077Z,4.35
2023-04-15T01:27:45.383Z,4.30
2023-04-15T01:30:12.724Z,3.42
2023-04-15T01:32:39.850Z,3.35
2023-04-15T01:35:07.821Z,3.40
2023-04-15T01:37:34.891Z,3.72
2023-04-15T01:40:03.354Z,2.83
2023-04-15T01:42:30.369Z,3.57
2023-04-15T01:44:59.003Z,3.97
2023-04-15T01:47:25.958Z,4.75
2023-04-15T01:49:53.245Z,4.35
2023-04-15T01:52:20.673Z,3.63
2023-04-15T01:54:48.090Z,4.03
2023-04-15T01:57:15.074Z,3.63
2023-04-15T01:59:42.704Z,3.45
2023-04-15T02:02:11.305Z,3.17
2023-04-15T02:04:39.093Z,2.60
2023-04-15T02:07:06.019Z,2.63
2023-04-15T02:09:33.696Z,2.60
2023-04-15T02:12:00.800Z,2.83
2023-04-15T02:14:28.072Z,3.28
2023-04-15T02:16:55.056Z,2.83
2023-04-15T02:19:23.790Z,2.70
2023-04-15T02:21:50.714Z,2.85
2023-04-15T02:24:17.868Z,2.80
2023-04-15T02:26:44.841Z,2.40
2023-04-15T02:29:12.268Z,2.70
2023-04-15T02:31:40.633Z,2.78
2023-04-15T02:34:08.251Z,2.90
2023-04-15T02:36:36.632Z,2.63
2023-04-15T02:39:04.424Z,2.70
2023-04-15T02:41:31.436Z,2.60
2023-04-15T02:43:58.703Z,2.40
2023-04-15T02:46:25.975Z,2.30
2023-04-15T02:48:53.923Z,2.17
2023-04-15T02:51:22.488Z,2.47
2023-04-15T02:53:51.338Z,2.30
2023-04-15T02:56:19.448Z,2.70
2023-04-15T02:58:46.988Z,2.08
2023-04-15T03:01:14.068Z,2.63
2023-04-15T03:03:41.453Z,2.50
2023-04-15T03:06:09.065Z,2.63
2023-04-15T03:08:37.064Z,3.35
2023-04-15T03:11:05.581Z,2.97
2023-04-15T03:13:32.877Z,2.17
2023-04-15T03:15:59.848Z,1.95
2023-04-15T03:18:27.177Z,2.10
2023-04-15T03:20:54.302Z,2.88
2023-04-15T03:23:21.776Z,2.78
2023-04-15T03:25:48.835Z,2.85
2023-04-15T03:28:17.472Z,3.00
2023-04-15T03:30:44.429Z,3.67
2023-04-15T03:33:12.083Z,2.80
2023-04-15T03:35:38.998Z,3.50
2023-04-15T03:38:06.510Z,3.45
2023-04-15T03:40:33.520Z,4.03
2023-04-15T03:43:00.960Z,3.75
2023-04-15T03:45:29.379Z,3.33
2023-04-15T03:48:00.596Z,2.97
2023-04-15T03:50:38.237Z,3.30
2023-04-15T03:53:06.039Z,3.13
2023-04-15T03:55:33.020Z,3.42
2023-04-15T03:58:00.272Z,3.80
2023-04-15T04:00:27.327Z,3.20
2023-04-15T04:02:56.363Z,2.88
2023-04-15T04:05:23.473Z,2.88
2023-04-15T04:07:50.677Z,3.42
2023-04-15T04:10:18.886Z,3.38
2023-04-15T04:12:46.253Z,2.92
2023-04-15T04:15:13.263Z,3.08
2023-04-15T04:17:40.814Z,2.80
2023-04-15T04:20:10.090Z,3.33
2023-04-15T04:22:38.765Z,4.38
2023-04-15T04:25:07.221Z,6.25
2023-04-15T04:27:34.409Z,6.60
2023-04-15T04:30:01.598Z,5.72
2023-04-15T04:32:28.959Z,4.68
2023-04-15T04:34:55.973Z,3.72
2023-04-15T04:37:25.125Z,4.40
2023-04-15T04:39:52.092Z,3.60
2023-04-15T04:42:19.360Z,3.75
2023-04-15T04:44:46.454Z,2.70
2023-04-15T04:47:14.151Z,2.92
2023-04-15T04:49:41.592Z,1.95
2023-04-15T04:52:09.096Z,2.08
2023-04-15T04:54:37.719Z,1.92
2023-04-15T04:59:33.296Z,1.85
2023-04-15T05:02:00.837Z,1.85
2023-04-15T05:04:27.989Z,2.08
2023-04-15T05:06:55.566Z,2.60
2023-04-15T05:09:22.600Z,1.95
2023-04-15T05:11:51.400Z,1.95
2023-04-15T05:14:18.445Z,1.50
2023-04-15T05:16:45.791Z,1.77
2023-04-15T05:19:12.772Z,1.73
2023-04-15T05:21:40.079Z,1.92
2023-04-15T05:24:07.120Z,2.50
2023-04-15T05:26:34.440Z,2.33
2023-04-15T05:29:02.920Z,2.00
2023-04-15T05:31:30.242Z,2.90
2023-04-15T05:33:57.331Z,2.40
2023-04-15T05:36:24.707Z,2.20
2023-04-15T05:38:51.728Z,2.13
2023-04-15T05:41:19.869Z,2.20
2023-04-15T05:43:47.130Z,2.30
2023-04-15T05:46:16.014Z,2.55
2023-04-15T05:48:42.974Z,2.17
2023-04-15T05:51:10.532Z,2.50
2023-04-15T05:53:37.596Z,2.72
2023-04-15T05:56:05.186Z,2.40
2023-04-15T05:58:32.303Z,2.50
2023-04-15T06:00:59.998Z,2.30
2023-04-15T06:03:29.749Z,2.30
2023-04-15T06:05:57.013Z,2.50
2023-04-15T06:08:23.995Z,2.15
2023-04-15T06:10:51.495Z,2.10
2023-04-15T06:13:18.441Z,3.13
2023-04-15T06:15:45.670Z,2.47
2023-04-15T06:18:13.078Z,2.42
2023-04-15T06:20:41.882Z,1.80
2023-04-15T06:23:08.978Z,2.50
2023-04-15T06:25:36.286Z,3.00
2023-04-15T06:28:03.672Z,2.30
2023-04-15T06:30:30.930Z,2.20
2023-04-15T06:32:58.144Z,2.20
2023-04-15T06:35:25.523Z,2.05
2023-04-15T06:37:53.945Z,2.03
2023-04-15T06:40:21.737Z,1.90
2023-04-15T06:42:48.778Z,2.10
2023-04-15T06:45:16.037Z,2.28
2023-04-15T06:47:43.662Z,1.90
2023-04-15T06:50:11.666Z,2.03
2023-04-15T06:52:38.775Z,1.77
2023-04-15T06:55:08.773Z,1.85
2023-04-15T06:57:36.021Z,2.03
2023-04-15T07:00:05.755Z,2.20
2023-04-15T07:02:32.953Z,1.98
2023-04-15T07:05:00.663Z,1.52
2023-04-15T07:07:27.752Z,1.83
2023-04-15T07:09:54.959Z,1.58
2023-04-15T07:12:23.329Z,1.50
2023-04-15T07:14:50.721Z,1.70
2023-04-15T07:17:17.813Z,1.50
2023-04-15T07:19:45.096Z,1.88
2023-04-15T07:22:12.204Z,1.38
2023-04-15T07:24:39.624Z,1.85
2023-04-15T07:27:06.512Z,1.35
2023-04-15T07:29:36.375Z,1.50
2023-04-15T07:32:03.830Z,3.35
2023-04-15T07:34:32.823Z,1.23
2023-04-15T07:37:00.175Z,1.10
2023-04-15T07:39:27.593Z,0.93
2023-04-15T07:41:54.686Z,1.25
2023-04-15T07:44:22.015Z,1.17
2023-04-15T07:46:50.533Z,1.35
2023-04-15T07:49:19.432Z,1.20
2023-04-15T07:51:46.431Z,1.08
2023-04-15T07:54:14.095Z,1.10
2023-04-15T07:56:41.369Z,1.20
2023-04-15T07:59:09.880Z,1.92
2023-04-15T08:01:37.691Z,1.52
2023-04-15T08:04:06.702Z,1.50
2023-04-15T08:06:34.057Z,1.40
2023-04-15T08:09:01.862Z,1.23
2023-04-15T08:11:28.994Z,1.10
2023-04-15T08:13:56.610Z,1.30
2023-04-15T08:16:24.993Z,1.25
2023-04-15T08:18:53.961Z,1.10
2023-04-15T08:21:22.957Z,1.00
2023-04-15T08:23:51.508Z,1.10
2023-04-15T08:26:18.860Z,1.42
2023-04-15T08:28:46.684Z,1.50
2023-04-15T08:31:14.958Z,1.10
2023-04-15T08:33:42.743Z,1.08
2023-04-15T08:36:09.944Z,1.38
2023-04-15T08:38:38.618Z,1.00
2023-04-15T08:41:12.487Z,1.13
2023-04-15T08:43:48.206Z,0.85
2023-04-15T08:46:16.759Z,1.23
2023-04-15T08:51:11.762Z,1.48
2023-04-15T08:53:40.508Z,1.20
2023-04-15T08:56:10.348Z,1.10
2023-04-15T08:58:38.272Z,0.93
2023-04-15T09:01:05.583Z,1.05
2023-04-15T09:03:34.822Z,0.73
2023-04-15T09:06:04.672Z,1.10
2023-04-15T09:08:32.300Z,1.17
2023-04-15T09:14:12.355Z,0.70
2023-04-15T09:17:01.065Z,0.73
2023-04-15T09:19:28.931Z,0.77
2023-04-15T09:21:59.069Z,0.80
2023-04-15T09:24:37.470Z,0.70
2023-04-15T09:27:05.187Z,0.98
2023-04-15T09:29:34.174Z,1.10
2023-04-15T09:32:11.036Z,1.35
2023-04-15T09:34:38.704Z,1.08
2023-04-15T09:37:07.625Z,0.60
2023-04-15T09:39:50.016Z,1.00
2023-04-15T09:42:23.994Z,0.90
2023-04-15T09:44:53.239Z,0.70
2023-04-15T09:49:57.499Z,0.80
2023-04-15T09:52:24.515Z,0.90
2023-04-15T09:54:54.604Z,1.10
2023-04-15T09:57:21.941Z,0.80
2023-04-15T09:59:49.191Z,1.23
2023-04-15T10:02:20.970Z,1.48
2023-04-15T10:04:49.378Z,1.10
2023-04-15T10:07:20.615Z,1.05
2023-04-15T10:09:49.358Z,0.90
2023-04-15T10:12:18.180Z,0.77
2023-04-15T10:14:51.817Z,0.77
2023-04-15T10:17:22.815Z,0.90
2023-04-15T10:19:54.069Z,1.15
2023-04-15T10:22:22.902Z,0.55
2023-04-15T10:24:51.422Z,0.80
2023-04-15T10:27:19.050Z,0.80
2023-04-15T10:29:47.815Z,1.20
2023-04-15T10:32:15.981Z,1.00
2023-04-15T10:34:46.380Z,1.23
2023-04-15T10:37:13.489Z,1.50
2023-04-15T10:39:43.092Z,1.40
2023-04-15T10:42:11.492Z,1.10
2023-04-15T10:44:39.461Z,1.23
2023-04-15T10:47:13.894Z,1.80
2023-04-15T10:49:47.181Z,1.60
2023-04-15T10:52:15.576Z,0.95
2023-04-15T10:57:17.525Z,1.95
2023-04-15T11:00:04.765Z,0.90
2023-04-15T11:02:44.036Z,0.70
2023-04-15T11:05:13.854Z,0.60
2023-04-15T11:07:48.697Z,2.00
2023-04-15T11:10:52.641Z,1.00
2023-04-15T11:13:22.768Z,1.58
2023-04-15T11:15:50.330Z,1.30
2023-04-15T11:18:18.759Z,0.80
2023-04-15T11:20:50.622Z,1.10
2023-04-15T11:23:18.923Z,1.70
2023-04-15T11:25:46.265Z,1.05
2023-04-15T11:28:13.709Z,1.23
2023-04-15T11:30:42.504Z,2.13
2023-04-15T11:33:12.199Z,3.50
2023-04-15T11:35:41.653Z,1.20
2023-04-15T11:38:12.099Z,1.67
2023-04-15T11:40:40.296Z,1.00
2023-04-15T11:43:09.089Z,0.70
2023-04-15T11:45:37.416Z,0.65
2023-04-15T11:48:09.272Z,0.95
2023-04-15T11:50:37.850Z,0.80
2023-04-15T11:53:08.286Z,0.85
2023-04-15T11:55:44.716Z,0.90
2023-04-15T11:58:15.618Z,0.85
2023-04-15T12:00:48.261Z,1.10
2023-04-15T12:03:20.180Z,0.80
2023-04-15T12:06:07.573Z,0.60
2023-04-15T12:09:09.807Z,0.93
2023-04-15T12:11:41.704Z,0.70
2023-04-15T12:14:16.086Z,0.75
2023-04-15T12:16:48.682Z,0.63
2023-04-15T12:19:18.861Z,0.60
2023-04-15T12:21:48.693Z,0.50
2023-04-15T12:24:19.839Z,0.80
2023-04-15T12:26:50.468Z,0.52
2023-04-15T12:29:18.036Z,0.57
2023-04-15T12:31:53.502Z,0.60
2023-04-15T12:34:27.970Z,0.57
2023-04-15T12:36:55.748Z,0.68
2023-04-15T12:39:24.566Z,0.70
2023-04-15T12:41:53.370Z,1.00
2023-04-15T12:44:22.759Z,0.77
2023-04-15T12:46:50.649Z,1.40
2023-04-15T12:49:20.072Z,1.63
2023-04-15T12:51:49.397Z,1.40
2023-04-15T12:56:44.563Z,0.80
2023-04-15T12:59:13.041Z,1.05
2023-04-15T13:04:08.196Z,4.65
2023-04-15T13:06:36.256Z,4.75
2023-04-15T13:09:05.247Z,2.13
2023-04-15T13:11:36.763Z,1.08
2023-04-15T13:14:06.749Z,1.70
2023-04-15T13:16:36.026Z,1.05
2023-04-15T13:21:35.077Z,1.00
2023-04-15T13:24:02.739Z,0.77
2023-04-15T13:26:31.322Z,0.75
2023-04-15T13:28:58.360Z,0.90
2023-04-15T13:31:26.362Z,1.00
2023-04-15T13:34:04.509Z,3.63
2023-04-15T13:38:59.968Z,3.63
2023-04-15T13:41:27.274Z,3.55
2023-04-15T13:43:54.348Z,0.98
2023-04-15T13:46:22.283Z,1.50
2023-04-15T13:48:49.835Z,2.08
2023-04-15T13:51:18.521Z,7.63
2023-04-15T13:53:45.805Z,3.17
2023-04-15T13:56:13.056Z,1.58
2023-04-15T13:58:41.227Z,0.90
2023-04-15T14:01:08.776Z,0.90
2023-04-15T14:03:36.950Z,0.80
2023-04-15T14:06:04.951Z,0.80
2023-04-15T14:08:33.657Z,0.90
2023-04-15T14:11:01.124Z,0.77
2023-04-15T14:13:28.838Z,0.80
2023-04-15T14:15:57.212Z,1.50
2023-04-15T14:18:24.210Z,1.00
2023-04-15T14:20:51.814Z,0.50
2023-04-15T14:23:18.943Z,0.60
2023-04-15T14:25:48.548Z,0.73
2023-04-15T14:28:15.831Z,1.02
2023-04-15T14:30:43.538Z,1.05
2023-04-15T14:33:10.667Z,1.00
2023-04-15T14:35:38.229Z,0.85
2023-04-15T14:38:11.003Z,0.50
2023-04-15T14:40:38.861Z,0.90
2023-04-15T14:43:07.502Z,0.70
2023-04-15T14:45:36.509Z,0.95
2023-04-15T14:48:03.811Z,0.90
2023-04-15T14:50:31.095Z,0.90
2023-04-15T14:52:58.591Z,0.70
2023-04-15T14:55:25.898Z,0.73
2023-04-15T14:57:53.103Z,0.60
2023-04-15T15:00:22.030Z,1.45
2023-04-15T15:02:49.174Z,0.55
2023-04-15T15:05:17.017Z,0.90
2023-04-15T15:07:44.050Z,0.82
2023-04-15T15:10:11.257Z,0.57
2023-04-15T15:12:38.299Z,0.90
2023-04-15T15:15:15.774Z,0.65
2023-04-15T15:17:53.980Z,0.50
2023-04-15T15:20:21.963Z,0.77
2023-04-15T15:22:49.305Z,0.80
2023-04-15T15:25:16.859Z,0.70
2023-04-15T15:27:44.097Z,0.93
2023-04-15T15:30:12.642Z,0.57
2023-04-15T15:32:40.703Z,0.50
2023-04-15T15:35:11.078Z,1.20
2023-04-15T15:37:38.613Z,0.80
2023-04-15T15:40:07.076Z,1.00
2023-04-15T15:42:34.488Z,1.23
2023-04-15T15:45:04.771Z,1.00
2023-04-15T15:47:32.173Z,1.08
2023-04-15T15:50:00.549Z,0.80
2023-04-15T15:52:28.888Z,0.68
2023-04-15T15:57:23.258Z,0.90
2023-04-15T15:59:52.801Z,0.80
2023-04-15T16:02:52.347Z,0.95
2023-04-15T16:05:15.913Z,0.68
2023-04-15T16:07:44.219Z,0.80
2023-04-15T16:10:12.515Z,0.90
2023-04-15T16:12:39.587Z,0.73
2023-04-15T16:15:08.226Z,0.70
2023-04-15T16:17:35.528Z,0.70
2023-04-15T16:20:05.649Z,1.10
2023-04-15T16:22:32.869Z,0.70
2023-04-15T16:25:01.767Z,0.60
2023-04-15T16:27:29.026Z,0.80
2023-04-15T16:29:56.281Z,0.75
2023-04-15T16:32:23.279Z,0.88
2023-04-15T16:34:50.873Z,1.10
2023-04-15T16:37:17.898Z,0.80
2023-04-15T16:39:45.035Z,1.15
2023-04-15T16:42:13.366Z,0.93
2023-04-15T16:44:40.708Z,0.68
2023-04-15T16:47:09.778Z,0.90
2023-04-15T16:49:37.047Z,1.13
2023-04-15T16:52:04.125Z,0.90
2023-04-15T16:54:33.509Z,1.10
2023-04-15T16:57:02.057Z,1.10
2023-04-15T17:01:57.746Z,0.70
2023-04-15T17:04:25.386Z,0.95
2023-04-15T17:06:52.418Z,0.90
2023-04-15T17:09:19.713Z,0.90
2023-04-15T17:11:46.722Z,1.00
2023-04-15T17:14:14.277Z,0.90
2023-04-15T17:16:43.239Z,0.80
2023-04-15T17:19:10.566Z,1.20
2023-04-15T17:21:37.590Z,1.17
2023-04-15T17:24:06.096Z,1.40
2023-04-15T17:26:33.176Z,1.42
2023-04-15T17:29:00.424Z,1.85
2023-04-15T17:31:29.665Z,1.50
2023-04-15T17:34:09.990Z,2.00
2023-04-15T17:36:38.055Z,1.60
2023-04-15T17:39:05.583Z,1.40
2023-04-15T17:41:32.785Z,1.80
2023-04-15T17:44:00.505Z,1.60
2023-04-15T17:46:29.076Z,1.70
2023-04-15T17:48:56.415Z,1.58
2023-04-15T17:51:24.867Z,1.50
2023-04-15T17:53:52.177Z,1.95
2023-04-15T17:56:19.264Z,1.70
2023-04-15T17:58:46.666Z,3.50
2023-04-15T18:01:13.681Z,2.95
2023-04-15T18:03:41.117Z,3.20
2023-04-15T18:06:08.230Z,3.13
2023-04-15T18:08:36.936Z,3.08
2023-04-15T18:11:04.708Z,2.38
2023-04-15T18:13:32.262Z,2.80
2023-04-15T18:15:59.298Z,2.45
2023-04-15T18:18:26.643Z,3.38
2023-04-15T18:20:53.589Z,2.47
2023-04-15T18:23:21.056Z,2.80
2023-04-15T18:25:49.811Z,3.10
2023-04-15T18:28:17.095Z,3.25
2023-04-15T18:30:44.194Z,3.60
2023-04-15T18:33:12.319Z,5.60
2023-04-15T18:35:39.313Z,8.18
2023-04-15T18:38:06.485Z,4.18
2023-04-15T18:40:33.606Z,4.43
2023-04-15T18:43:02.163Z,4.63
2023-04-15T18:45:30.044Z,4.47
2023-04-15T18:48:00.220Z,4.35
2023-04-15T18:50:27.265Z,4.35
2023-04-15T18:52:54.613Z,4.82
2023-04-15T18:55:23.835Z,4.20
2023-04-15T18:57:51.563Z,5.35
2023-04-15T19:00:19.979Z,4.75
2023-04-15T19:02:47.276Z,4.60
2023-04-15T19:05:14.396Z,3.90
2023-04-15T19:07:42.059Z,3.65
2023-04-15T19:10:09.494Z,3.63
2023-04-15T19:12:37.067Z,3.22
2023-04-15T19:15:04.363Z,2.90
2023-04-15T19:17:33.317Z,2.47
2023-04-15T19:20:00.566Z,2.60
2023-04-15T19:22:29.943Z,2.47
2023-04-15T19:24:56.813Z,2.03
2023-04-15T19:27:24.032Z,2.22
2023-04-15T19:29:50.954Z,2.25
2023-04-15T19:32:18.240Z,1.80
2023-04-15T19:34:46.653Z,1.60
2023-04-15T19:37:14.742Z,1.85
2023-04-15T19:39:41.884Z,2.30
2023-04-15T19:42:09.713Z,2.25
2023-04-15T19:44:37.402Z,3.00
2023-04-15T19:47:04.638Z,2.47
2023-04-15T19:49:31.725Z,2.53
2023-04-15T19:52:00.370Z,2.55
2023-04-15T19:54:27.482Z,2.50
2023-04-15T19:56:54.851Z,2.40
2023-04-15T19:59:21.900Z,1.92
2023-04-15T20:01:49.259Z,2.42
2023-04-15T20:04:16.755Z,1.92
2023-04-15T20:06:44.099Z,1.88
2023-04-15T20:09:12.577Z,1.95
2023-04-15T20:12:45.941Z,2.03
2023-04-15T20:14:27.400Z,1.67
2023-04-15T20:16:54.738Z,2.00
2023-04-15T20:19:21.716Z,1.60
2023-04-15T20:21:50.321Z,2.00
2023-04-15T20:24:21.464Z,1.90
2023-04-15T20:26:48.981Z,2.22
2023-04-15T20:29:16.021Z,1.85
2023-04-15T20:31:43.410Z,1.95
2023-04-15T20:34:12.141Z,1.92
2023-04-15T20:39:06.396Z,1.83
2023-04-15T20:41:35.342Z,2.15
2023-04-15T20:44:02.380Z,1.85
2023-04-15T20:46:29.595Z,1.85
2023-04-15T20:48:56.538Z,1.67
2023-04-15T20:51:23.815Z,2.10
2023-04-15T20:53:51.247Z,1.90
2023-04-15T20:56:18.624Z,2.33
2023-04-15T20:58:47.001Z,2.47
2023-04-15T21:01:14.355Z,3.05
2023-04-15T21:03:41.563Z,3.88
2023-04-15T21:06:08.891Z,4.25
2023-04-15T21:08:35.949Z,2.90
2023-04-15T21:11:03.418Z,2.80
2023-04-15T21:13:30.416Z,2.42
2023-04-15T21:15:59.107Z,2.58
2023-04-15T21:18:26.120Z,3.47
2023-04-15T21:20:56.849Z,3.35
2023-04-15T21:23:23.973Z,2.75
2023-04-15T21:25:51.536Z,2.90
2023-04-15T21:28:18.492Z,2.97
2023-04-15T21:30:46.196Z,2.97
2023-04-15T21:33:14.618Z,2.97
2023-04-15T21:35:41.935Z,2.90
2023-04-15T21:38:08.936Z,2.60
2023-04-15T21:40:40.330Z,3.03
2023-04-15T21:43:07.661Z,2.88
2023-04-15T21:45:35.137Z,3.20
2023-04-15T21:48:07.549Z,3.03
2023-04-15T21:50:37.486Z,3.30
2023-04-15T21:53:06.486Z,2.60
2023-04-15T21:55:33.744Z,3.10
2023-04-15T21:58:00.656Z,3.40
2023-04-15T22:00:28.014Z,2.58
2023-04-15T22:02:55.508Z,2.25
2023-04-15T22:05:22.909Z,2.50
2023-04-15T22:07:51.556Z,2.10
2023-04-15T22:10:19.587Z,2.17
2023-04-15T22:12:46.528Z,2.03
2023-04-15T22:15:14.761Z,2.10
2023-04-15T22:17:41.672Z,2.10
2023-04-15T22:20:09.966Z,2.33
2023-04-15T22:22:43.971Z,2.67
2023-04-15T22:25:16.456Z,2.15
2023-04-15T22:27:43.382Z,2.00
2023-04-15T22:30:11.528Z,2.28
2023-04-15T22:32:38.487Z,2.40
2023-04-15T22:35:06.704Z,2.38
2023-04-15T22:37:33.715Z,2.22
2023-04-15T22:40:01.988Z,2.30
2023-04-15T22:42:30.422Z,2.58
2023-04-15T22:44:57.689Z,2.25
2023-04-15T22:47:24.724Z,2.90
2023-04-15T22:49:51.932Z,2.58
2023-04-15T22:52:27.496Z,2.85
2023-04-15T22:54:57.610Z,2.60
2023-04-15T22:57:24.486Z,2.42
2023-04-15T22:59:53.075Z,2.05
2023-04-15T23:02:20.554Z,2.17
2023-04-15T23:04:48.057Z,2.10
2023-04-15T23:07:15.074Z,2.13
2023-04-15T23:09:42.305Z,1.98
2023-04-15T23:12:09.500Z,2.40
2023-04-15T23:14:36.801Z,1.60
2023-04-15T23:17:05.544Z,1.80
2023-04-15T23:19:32.941Z,1.80
2023-04-15T23:21:59.933Z,1.85
2023-04-15T23:24:27.190Z,2.00
2023-04-15T23:26:54.768Z,1.90
2023-04-15T23:29:22.031Z,1.85
2023-04-15T23:31:49.029Z,1.70
2023-04-15T23:34:17.712Z,1.52
2023-04-15T23:36:44.627Z,1.40
2023-04-15T23:39:12.108Z,1.50
2023-04-15T23:41:39.140Z,1.55
2023-04-15T23:44:07.173Z,1.58
2023-04-15T23:46:34.083Z,1.88
2023-04-15T23:49:01.231Z,1.90
2023-04-15T23:51:29.418Z,2.30
2023-04-15T23:53:56.735Z,2.05
2023-04-15T23:56:23.697Z,1.92
2023-04-15T23:58:51.049Z,2.10
